createdAt,value
2018-02-12T00:00:05.917Z,4.35
2018-02-12T00:02:33.409Z,2.65
2018-02-12T00:05:00.914Z,2.20
2018-02-12T00:07:28.397Z,2.28
2018-02-12T00:09:55.918Z,2.70
2018-02-12T00:12:23.438Z,7.72
2018-02-12T00:14:51.700Z,3.60
2018-02-12T00:17:19.986Z,4.30
2018-02-12T00:19:47.479Z,4.75
2018-02-12T00:22:14.986Z,4.75
2018-02-12T00:24:43.255Z,5.10
2018-02-12T00:27:10.757Z,4.53
2018-02-12T00:29:38.289Z,4.10
2018-02-12T00:32:05.823Z,4.65
2018-02-12T00:34:33.329Z,3.83
2018-02-12T00:37:00.850Z,3.40
2018-02-12T00:39:28.382Z,8.95
2018-02-12T00:41:55.895Z,5.20
2018-02-12T00:44:23.454Z,10.65
2018-02-12T00:46:51.741Z,9.10
2018-02-12T00:49:19.268Z,7.18
2018-02-12T00:51:47.575Z,4.32
2018-02-12T00:54:15.069Z,7.97
2018-02-12T00:56:42.585Z,3.67
2018-02-12T00:59:10.102Z,7.10
2018-02-12T01:01:37.604Z,12.70
2018-02-12T01:04:05.081Z,4.20
2018-02-12T01:06:32.601Z,4.95
2018-02-12T01:09:00.873Z,6.30
2018-02-12T01:11:29.151Z,4.57
2018-02-12T01:13:57.467Z,8.88
2018-02-12T01:16:24.955Z,4.47
2018-02-12T01:18:52.453Z,4.97
2018-02-12T01:21:20.741Z,4.97
2018-02-12T01:23:48.240Z,3.50
2018-02-12T01:26:15.764Z,5.80
2018-02-12T01:28:43.258Z,3.78
2018-02-12T01:31:10.769Z,3.53
2018-02-12T01:33:38.278Z,3.50
2018-02-12T01:36:05.783Z,2.65
2018-02-12T01:38:33.269Z,3.65
2018-02-12T01:41:00.788Z,6.05
2018-02-12T01:43:29.053Z,2.50
2018-02-12T01:45:56.653Z,4.78
2018-02-12T01:48:24.146Z,6.60
2018-02-12T01:50:51.627Z,4.60
2018-02-12T01:53:19.942Z,9.55
2018-02-12T01:55:47.474Z,4.28
2018-02-12T01:58:15.767Z,8.20
2018-02-12T02:00:43.308Z,3.58
2018-02-12T02:03:11.571Z,3.12
2018-02-12T02:05:39.065Z,7.70
2018-02-12T02:08:06.595Z,4.80
2018-02-12T02:10:34.879Z,5.68
2018-02-12T02:13:03.126Z,2.85
2018-02-12T02:15:30.636Z,5.80
2018-02-12T02:17:58.128Z,5.60
2018-02-12T02:20:25.657Z,3.15
2018-02-12T02:22:53.137Z,4.32
2018-02-12T02:25:20.618Z,6.05
2018-02-12T02:27:48.125Z,4.78
2018-02-12T02:30:15.619Z,5.85
2018-02-12T02:32:43.133Z,6.87
2018-02-12T02:35:10.655Z,3.25
2018-02-12T02:37:38.142Z,3.12
2018-02-12T02:40:06.414Z,3.58
2018-02-12T02:42:34.690Z,5.65
2018-02-12T02:45:02.988Z,3.42
2018-02-12T02:47:30.520Z,2.55
2018-02-12T02:49:58.773Z,6.57
2018-02-12T02:52:26.278Z,3.37
2018-02-12T02:54:53.778Z,4.10
2018-02-12T02:57:21.306Z,3.67
2018-02-12T02:59:48.845Z,8.23
2018-02-12T03:02:16.325Z,4.32
2018-02-12T03:04:43.830Z,4.68
2018-02-12T03:07:11.334Z,4.12
2018-02-12T03:09:38.856Z,13.00
2018-02-12T03:12:07.115Z,5.15
2018-02-12T03:14:34.642Z,4.60
2018-02-12T03:17:02.143Z,3.90
2018-02-12T03:19:29.631Z,7.37
2018-02-12T03:21:57.162Z,2.55
2018-02-12T03:24:24.652Z,3.20
2018-02-12T03:26:52.170Z,9.00
2018-02-12T03:29:19.650Z,8.15
2018-02-12T03:31:47.917Z,3.40
2018-02-12T03:34:16.182Z,9.93
2018-02-12T03:36:44.473Z,4.65
2018-02-12T03:39:12.764Z,3.65
2018-02-12T03:41:40.252Z,9.18
2018-02-12T03:44:07.740Z,6.62
2018-02-12T03:46:35.254Z,5.72
2018-02-12T03:49:02.740Z,8.95
2018-02-12T03:51:30.258Z,5.85
2018-02-12T03:53:57.750Z,6.35
2018-02-12T03:56:25.250Z,6.43
2018-02-12T03:58:53.526Z,6.25
2018-02-12T04:01:21.777Z,4.80
2018-02-12T04:03:49.293Z,6.00
2018-02-12T04:06:16.779Z,9.57
2018-02-12T04:08:44.298Z,4.30
2018-02-12T04:11:11.797Z,7.30
2018-02-12T04:13:39.301Z,9.10
2018-02-12T04:16:07.581Z,6.43
2018-02-12T04:18:35.842Z,6.47
2018-02-12T04:21:04.146Z,6.20
2018-02-12T04:23:31.632Z,6.28
2018-02-12T04:25:59.159Z,13.23
2018-02-12T04:28:26.660Z,9.40
2018-02-12T04:30:54.174Z,3.70
2018-02-12T04:33:21.670Z,10.38
2018-02-12T04:35:49.157Z,5.62
2018-02-12T04:38:16.662Z,5.45
2018-02-12T04:40:44.170Z,7.57
2018-02-12T04:43:11.675Z,5.80
2018-02-12T04:45:39.161Z,6.95
2018-02-12T04:48:06.673Z,7.37
2018-02-12T04:50:34.172Z,14.90
2018-02-12T04:53:01.698Z,6.53
2018-02-12T04:55:29.193Z,7.15
2018-02-12T04:57:56.680Z,3.50
2018-02-12T05:00:24.193Z,11.82
2018-02-12T05:02:51.710Z,6.32
2018-02-12T05:05:19.978Z,4.12
2018-02-12T05:07:47.483Z,5.37
2018-02-12T05:10:15.010Z,3.40
2018-02-12T05:12:43.282Z,6.20
2018-02-12T05:15:11.551Z,3.15
2018-02-12T05:17:39.807Z,3.47
2018-02-12T05:20:07.314Z,6.60
2018-02-12T05:22:34.819Z,8.75
2018-02-12T05:25:02.331Z,3.35
2018-02-12T05:27:29.853Z,5.45
2018-02-12T05:29:58.106Z,9.80
2018-02-12T05:32:25.627Z,4.12
2018-02-12T05:34:53.144Z,7.53
2018-02-12T05:37:21.421Z,8.27
2018-02-12T05:39:49.669Z,4.12
2018-02-12T05:42:17.177Z,5.20
2018-02-12T05:44:45.437Z,4.57
2018-02-12T05:47:13.726Z,4.07
2018-02-12T05:49:42.011Z,21.65
2018-02-12T05:52:09.530Z,17.77
2018-02-12T05:54:37.079Z,11.68
2018-02-12T05:57:04.586Z,5.87
2018-02-12T05:59:32.085Z,4.25
2018-02-12T06:01:59.626Z,9.27
2018-02-12T06:04:27.138Z,4.50
2018-02-12T06:06:55.442Z,4.82
2018-02-12T06:09:22.947Z,9.32
2018-02-12T06:11:50.423Z,5.07
2018-02-12T06:14:18.732Z,4.10
2018-02-12T06:16:46.215Z,13.07
2018-02-12T06:19:13.706Z,5.35
2018-02-12T06:21:41.229Z,7.20
2018-02-12T06:24:08.726Z,4.87
2018-02-12T06:26:36.239Z,8.80
2018-02-12T06:29:03.719Z,3.62
2018-02-12T06:31:31.230Z,4.07
2018-02-12T06:33:59.506Z,2.97
2018-02-12T06:36:27.759Z,4.40
2018-02-12T06:38:55.291Z,10.77
2018-02-12T06:41:22.784Z,5.15
2018-02-12T06:43:51.062Z,4.60
2018-02-12T06:46:19.348Z,4.78
2018-02-12T06:48:46.863Z,6.87
2018-02-12T06:51:14.355Z,3.60
2018-02-12T06:53:42.665Z,6.40
2018-02-12T06:56:10.158Z,4.32
2018-02-12T06:58:37.663Z,8.93
2018-02-12T07:01:05.931Z,4.28
2018-02-12T07:03:34.177Z,6.53
2018-02-12T07:06:01.689Z,4.10
2018-02-12T07:08:29.175Z,4.82
2018-02-12T07:10:56.700Z,10.05
2018-02-12T07:13:24.191Z,6.15
2018-02-12T07:15:51.728Z,5.05
2018-02-12T07:18:20.968Z,7.28
2018-02-12T07:20:48.479Z,8.50
2018-02-12T07:23:15.998Z,7.20
2018-02-12T07:25:43.513Z,5.07
2018-02-12T07:28:11.042Z,5.40
2018-02-12T07:30:38.532Z,6.62
2018-02-12T07:33:06.047Z,3.75
2018-02-12T07:35:34.364Z,8.30
2018-02-12T07:38:01.872Z,5.25
2018-02-12T07:40:30.179Z,3.45
2018-02-12T07:42:57.698Z,6.90
2018-02-12T07:45:25.198Z,3.03
2018-02-12T07:47:52.688Z,5.10
2018-02-12T07:50:20.215Z,4.50
2018-02-12T07:52:47.702Z,3.55
2018-02-12T07:55:15.239Z,2.95
2018-02-12T07:57:42.757Z,4.25
2018-02-12T08:00:11.056Z,3.60
2018-02-12T08:02:38.573Z,6.57
2018-02-12T08:05:06.071Z,5.70
2018-02-12T08:07:33.588Z,3.22
2018-02-12T08:10:01.096Z,3.62
2018-02-12T08:12:28.629Z,8.48
2018-02-12T08:14:56.144Z,7.47
2018-02-12T08:17:23.675Z,3.75
2018-02-12T08:19:51.199Z,8.23
2018-02-12T08:22:19.449Z,4.70
2018-02-12T08:24:47.027Z,5.40
2018-02-12T08:27:14.542Z,8.98
2018-02-12T08:29:42.069Z,5.87
2018-02-12T08:32:14.062Z,7.95
2018-02-12T08:34:41.587Z,3.28
2018-02-12T08:37:09.851Z,3.40
2018-02-12T08:39:38.133Z,5.85
2018-02-12T08:42:07.153Z,6.05
2018-02-12T08:44:34.675Z,6.07
2018-02-12T08:47:06.048Z,7.10
2018-02-12T08:49:34.031Z,4.18
2018-02-12T08:52:01.588Z,8.77
2018-02-12T08:54:29.111Z,8.57
2018-02-12T08:56:58.349Z,6.60
2018-02-12T08:59:25.829Z,5.18
2018-02-12T09:01:53.337Z,5.90
2018-02-12T09:04:21.618Z,4.78
2018-02-12T09:06:50.742Z,3.72
2018-02-12T09:09:18.485Z,6.12
2018-02-12T09:11:46.010Z,8.20
2018-02-12T09:14:13.499Z,6.50
2018-02-12T09:16:40.982Z,3.95
2018-02-12T09:19:08.502Z,6.85
2018-02-12T09:21:36.763Z,6.35
2018-02-12T09:24:05.030Z,6.10
2018-02-12T09:26:32.540Z,4.53
2018-02-12T09:29:00.069Z,3.20
2018-02-12T09:31:28.348Z,11.85
2018-02-12T09:33:56.645Z,6.03
2018-02-12T09:36:24.213Z,8.88
2018-02-12T09:38:51.750Z,7.50
2018-02-12T09:41:20.010Z,4.10
2018-02-12T09:43:48.305Z,5.57
2018-02-12T09:46:15.839Z,7.22
2018-02-12T09:48:44.114Z,6.18
2018-02-12T09:51:11.617Z,3.55
2018-02-12T09:53:39.142Z,3.75
2018-02-12T09:56:07.386Z,3.90
2018-02-12T09:58:34.902Z,3.10
2018-02-12T10:01:02.448Z,6.82
2018-02-12T10:03:29.959Z,5.85
2018-02-12T10:05:57.470Z,3.45
2018-02-12T10:08:25.015Z,4.78
2018-02-12T10:10:53.268Z,2.90
2018-02-12T10:13:20.773Z,2.20
2018-02-12T10:15:48.293Z,2.60
2018-02-12T10:18:15.793Z,2.58
2018-02-12T10:20:43.325Z,2.80
2018-02-12T10:23:12.338Z,2.40
2018-02-12T10:25:39.829Z,3.72
2018-02-12T10:28:07.358Z,3.50
2018-02-12T10:30:34.852Z,2.42
2018-02-12T10:33:03.033Z,3.17
2018-02-12T10:35:30.549Z,2.08
2018-02-12T10:37:58.049Z,2.30
2018-02-12T10:40:25.539Z,4.72
2018-02-12T10:42:53.816Z,3.62
2018-02-12T10:45:22.104Z,3.58
2018-02-12T10:47:49.777Z,2.10
2018-02-12T10:50:17.264Z,3.95
2018-02-12T10:52:44.762Z,3.67
2018-02-12T10:55:13.064Z,2.90
2018-02-12T10:57:41.793Z,2.10
2018-02-12T11:03:07.931Z,4.65
2018-02-12T11:05:35.421Z,2.00
2018-02-12T11:08:03.714Z,3.72
2018-02-12T11:10:31.963Z,4.43
2018-02-12T11:12:59.473Z,2.87
2018-02-12T11:15:27.001Z,4.43
2018-02-12T11:17:55.275Z,5.12
2018-02-12T11:20:23.595Z,2.35
2018-02-12T11:22:52.207Z,2.80
2018-02-12T11:25:19.716Z,4.87
2018-02-12T11:27:47.247Z,2.45
2018-02-12T11:30:15.541Z,3.47
2018-02-12T11:32:43.064Z,2.55
2018-02-12T11:35:10.577Z,3.03
2018-02-12T11:37:38.114Z,2.62
2018-02-12T11:40:06.406Z,7.00
2018-02-12T11:42:33.975Z,2.87
2018-02-12T11:45:01.494Z,2.83
2018-02-12T11:47:29.794Z,3.35
2018-02-12T11:49:57.326Z,4.75
2018-02-12T11:55:05.790Z,3.35
2018-02-12T11:57:33.295Z,8.00
2018-02-12T12:00:00.854Z,7.18
2018-02-12T12:02:28.348Z,33.88
2018-02-12T12:04:56.675Z,6.43
2018-02-12T12:07:24.207Z,4.78
2018-02-12T12:09:51.788Z,4.25
2018-02-12T12:12:19.340Z,5.93
2018-02-12T12:14:46.866Z,2.40
2018-02-12T12:17:14.364Z,4.55
2018-02-12T12:19:42.002Z,6.15
2018-02-12T12:22:09.499Z,3.03
2018-02-12T12:24:36.988Z,3.30
2018-02-12T12:27:05.288Z,2.92
2018-02-12T12:29:32.808Z,7.82
2018-02-12T12:32:01.120Z,4.20
2018-02-12T12:34:28.637Z,2.40
2018-02-12T12:36:56.159Z,2.90
2018-02-12T12:39:23.695Z,4.50
2018-02-12T12:41:51.190Z,3.37
2018-02-12T12:44:18.752Z,2.78
2018-02-12T12:46:46.270Z,3.22
2018-02-12T12:49:13.781Z,3.80
2018-02-12T12:51:41.307Z,2.90
2018-02-12T12:54:09.693Z,4.15
2018-02-12T12:56:37.217Z,6.57
2018-02-12T12:59:05.499Z,3.85
2018-02-12T13:01:32.998Z,2.50
2018-02-12T13:04:00.518Z,2.60
2018-02-12T13:06:28.006Z,6.07
2018-02-12T13:08:55.507Z,2.53
2018-02-12T13:11:23.790Z,8.93
2018-02-12T13:13:52.074Z,5.75
2018-02-12T13:16:20.347Z,9.60
2018-02-12T13:18:48.608Z,3.33
2018-02-12T13:21:16.115Z,2.83
2018-02-12T13:23:44.397Z,1.87
2018-02-12T13:26:11.899Z,2.58
2018-02-12T13:28:39.411Z,1.60
2018-02-12T13:31:06.937Z,1.83
2018-02-12T13:33:34.446Z,2.00
2018-02-12T13:36:01.964Z,2.03
2018-02-12T13:38:29.476Z,3.72
2018-02-12T13:40:56.966Z,5.90
2018-02-12T13:43:25.270Z,6.57
2018-02-12T13:45:52.775Z,5.20
2018-02-12T13:48:20.298Z,3.90
2018-02-12T13:50:47.845Z,3.53
2018-02-12T13:53:15.387Z,10.43
2018-02-12T13:55:42.927Z,5.25
2018-02-12T13:58:11.218Z,2.92
2018-02-12T14:00:39.508Z,4.85
2018-02-12T14:03:07.018Z,1.83
2018-02-12T14:05:34.570Z,2.70
2018-02-12T14:08:02.060Z,2.00
2018-02-12T14:10:30.342Z,1.70
2018-02-12T14:12:57.858Z,4.07
2018-02-12T14:15:25.386Z,1.75
2018-02-12T14:17:52.899Z,3.60
2018-02-12T14:20:21.216Z,3.03
2018-02-12T14:22:48.753Z,3.62
2018-02-12T14:25:17.018Z,1.95
2018-02-12T14:27:45.314Z,2.22
2018-02-12T14:30:12.822Z,2.40
2018-02-12T14:32:40.338Z,4.53
2018-02-12T14:35:07.834Z,6.37
2018-02-12T14:37:35.355Z,4.40
2018-02-12T14:40:02.854Z,2.33
2018-02-12T14:42:30.374Z,4.03
2018-02-12T14:44:57.910Z,2.22
2018-02-12T14:47:26.173Z,5.18
2018-02-12T14:49:54.480Z,3.17
2018-02-12T14:52:21.991Z,2.80
2018-02-12T14:54:49.519Z,2.20
2018-02-12T14:57:17.035Z,7.93
2018-02-12T14:59:45.303Z,2.58
2018-02-12T15:02:12.830Z,6.05
2018-02-12T15:04:40.334Z,5.53
2018-02-12T15:07:08.640Z,4.20
2018-02-12T15:09:36.161Z,2.80
2018-02-12T15:12:04.441Z,2.17
2018-02-12T15:14:32.742Z,2.00
2018-02-12T15:17:00.271Z,1.70
2018-02-12T15:19:28.525Z,6.68
2018-02-12T15:21:56.030Z,2.50
2018-02-12T15:24:23.550Z,3.37
2018-02-12T15:26:51.048Z,2.37
2018-02-12T15:29:18.578Z,2.60
2018-02-12T15:31:46.860Z,2.08
2018-02-12T15:34:15.133Z,4.07
2018-02-12T15:36:43.409Z,4.25
2018-02-12T15:39:11.679Z,2.10
2018-02-12T15:41:39.199Z,5.60
2018-02-12T15:44:06.689Z,2.08
2018-02-12T15:46:34.182Z,5.72
2018-02-12T15:49:01.685Z,2.10
2018-02-12T15:51:29.188Z,2.15
2018-02-12T15:53:57.459Z,2.22
2018-02-12T15:56:25.750Z,3.03
2018-02-12T15:58:53.288Z,3.25
2018-02-12T16:01:21.538Z,2.78
2018-02-12T16:03:49.034Z,2.37
2018-02-12T16:09:09.855Z,2.72
2018-02-12T16:11:38.169Z,2.50
2018-02-12T16:14:05.708Z,4.10
2018-02-12T16:16:33.209Z,5.28
2018-02-12T16:19:00.718Z,3.78
2018-02-12T16:21:28.246Z,2.75
2018-02-12T16:23:56.718Z,5.12
2018-02-12T16:26:24.251Z,3.78
2018-02-12T16:28:51.820Z,5.22
2018-02-12T16:31:19.330Z,3.78
2018-02-12T16:33:47.662Z,4.53
2018-02-12T16:36:15.166Z,5.40
2018-02-12T16:38:42.712Z,2.10
2018-02-12T16:41:10.985Z,3.22
2018-02-12T16:43:39.294Z,9.23
2018-02-12T16:46:06.830Z,5.00
2018-02-12T16:48:35.106Z,10.23
2018-02-12T16:51:02.613Z,5.80
2018-02-12T16:53:30.173Z,3.50
2018-02-12T16:55:57.750Z,2.72
2018-02-12T16:58:25.250Z,2.40
2018-02-12T17:00:52.751Z,6.00
2018-02-12T17:03:20.273Z,4.07
2018-02-12T17:05:47.778Z,3.85
2018-02-12T17:08:15.321Z,2.78
2018-02-12T17:10:42.811Z,5.22
2018-02-12T17:13:10.640Z,4.45
2018-02-12T17:15:38.163Z,7.93
2018-02-12T17:18:05.702Z,3.12
2018-02-12T17:20:33.945Z,2.92
2018-02-12T17:23:01.475Z,3.45
2018-02-12T17:25:28.986Z,2.70
2018-02-12T17:27:57.234Z,5.32
2018-02-12T17:30:24.730Z,7.60
2018-02-12T17:32:53.055Z,2.40
2018-02-12T17:35:20.545Z,3.37
2018-02-12T17:37:48.863Z,3.00
2018-02-12T17:40:16.386Z,9.93
2018-02-12T17:42:43.893Z,7.10
2018-02-12T17:45:11.398Z,8.48
2018-02-12T17:47:38.966Z,6.93
2018-02-12T17:50:06.458Z,8.70
2018-02-12T17:52:34.021Z,3.22
2018-02-12T17:55:02.384Z,5.80
2018-02-12T17:57:29.931Z,3.70
2018-02-12T17:59:58.397Z,4.03
2018-02-12T18:02:26.695Z,7.03
2018-02-12T18:04:54.943Z,7.22
2018-02-12T18:07:22.599Z,8.02
2018-02-12T18:09:50.133Z,5.75
2018-02-12T18:12:17.701Z,3.97
2018-02-12T18:14:45.265Z,4.37
2018-02-12T18:17:12.831Z,6.37
2018-02-12T18:19:40.324Z,7.00
2018-02-12T18:22:08.605Z,8.27
2018-02-12T18:24:36.135Z,6.45
2018-02-12T18:27:03.663Z,13.80
2018-02-12T18:29:31.301Z,14.63
2018-02-12T18:31:58.823Z,23.67
2018-02-12T18:34:27.126Z,19.37
2018-02-12T18:36:54.646Z,17.37
2018-02-12T18:39:22.300Z,14.35
2018-02-12T18:41:49.833Z,10.65
2018-02-12T18:44:17.387Z,18.55
2018-02-12T18:46:45.175Z,17.45
2018-02-12T18:49:12.704Z,10.73
2018-02-12T18:51:40.233Z,11.77
2018-02-12T18:54:08.792Z,9.30
2018-02-12T18:56:36.608Z,8.27
2018-02-12T18:59:04.158Z,11.30
2018-02-12T19:01:32.547Z,15.15
2018-02-12T19:04:00.073Z,13.23
2018-02-12T19:06:28.397Z,19.25
2018-02-12T19:08:55.931Z,14.75
2018-02-12T19:11:24.173Z,12.20
2018-02-12T19:13:51.755Z,11.48
2018-02-12T19:16:19.437Z,16.90
2018-02-12T19:18:47.026Z,11.48
2018-02-12T19:21:14.547Z,16.05
2018-02-12T19:23:42.138Z,14.38
2018-02-12T19:26:09.720Z,12.45
2018-02-12T19:28:37.307Z,10.20
2018-02-12T19:31:05.620Z,10.35
2018-02-12T19:33:33.203Z,11.90
2018-02-12T19:36:01.144Z,18.12
2018-02-12T19:38:28.925Z,22.05
2018-02-12T19:40:56.494Z,29.30
2018-02-12T19:43:24.125Z,19.45
2018-02-12T19:45:51.852Z,14.13
2018-02-12T19:48:20.284Z,13.40
2018-02-12T19:50:47.812Z,15.32
2018-02-12T19:53:15.357Z,13.35
2018-02-12T19:55:43.632Z,11.95
2018-02-12T19:58:11.984Z,20.90
2018-02-12T20:00:39.666Z,14.70
2018-02-12T20:03:08.243Z,15.50
2018-02-12T20:05:35.794Z,10.82
2018-02-12T20:08:03.360Z,16.80
2018-02-12T20:10:30.983Z,17.05
2018-02-12T20:12:58.993Z,15.10
2018-02-12T20:15:26.611Z,12.15
2018-02-12T20:17:54.179Z,18.35
2018-02-12T20:20:21.725Z,12.05
2018-02-12T20:22:49.488Z,16.17
2018-02-12T20:25:17.004Z,13.80
2018-02-12T20:27:45.306Z,11.20
2018-02-12T20:30:12.815Z,15.93
2018-02-12T20:32:40.796Z,10.35
2018-02-12T20:35:08.558Z,12.23
2018-02-12T20:37:36.139Z,14.93
2018-02-12T20:40:11.233Z,17.65
2018-02-12T20:42:38.822Z,13.95
2018-02-12T20:45:07.151Z,17.77
2018-02-12T20:47:34.647Z,14.95
2018-02-12T20:50:02.179Z,14.05
2018-02-12T20:52:30.164Z,15.90
2018-02-12T20:54:57.996Z,17.95
2018-02-12T20:57:26.580Z,18.08
2018-02-12T20:59:55.452Z,24.83
2018-02-12T21:02:24.117Z,23.58
2018-02-12T21:04:51.761Z,22.37
2018-02-12T21:07:19.350Z,26.42
2018-02-12T21:09:47.657Z,19.83
2018-02-12T21:12:15.171Z,21.80
2018-02-12T21:14:43.460Z,16.15
2018-02-12T21:17:12.143Z,14.18
2018-02-12T21:19:40.606Z,13.10
2018-02-12T21:22:08.165Z,20.45
2018-02-12T21:24:35.697Z,13.80
2018-02-12T21:27:03.415Z,21.40
2018-02-12T21:29:30.951Z,16.37
2018-02-12T21:31:58.445Z,15.32
2018-02-12T21:34:25.979Z,15.98
2018-02-12T21:36:54.266Z,16.52
2018-02-12T21:39:21.783Z,17.75
2018-02-12T21:41:49.380Z,20.45
2018-02-12T21:44:17.008Z,18.52
2018-02-12T21:46:45.298Z,19.95
2018-02-12T21:49:12.837Z,16.33
2018-02-12T21:51:40.362Z,17.80
2018-02-12T21:54:08.016Z,18.45
2018-02-12T21:56:35.596Z,15.77
2018-02-12T21:59:03.137Z,14.98
2018-02-12T22:01:30.697Z,19.15
2018-02-12T22:03:58.358Z,19.35
2018-02-12T22:06:25.867Z,15.30
2018-02-12T22:08:53.415Z,16.05
2018-02-12T22:11:21.330Z,12.75
2018-02-12T22:13:49.070Z,19.45
2018-02-12T22:16:17.516Z,19.87
2018-02-12T22:18:45.088Z,27.50
2018-02-12T22:21:12.616Z,21.77
2018-02-12T22:23:40.557Z,16.62
2018-02-12T22:26:08.113Z,20.02
2018-02-12T22:28:36.417Z,21.52
2018-02-12T22:31:04.039Z,18.00
2018-02-12T22:33:32.327Z,15.00
2018-02-12T22:36:01.044Z,16.42
2018-02-12T22:38:29.904Z,13.40
2018-02-12T22:40:57.580Z,14.13
2018-02-12T22:43:25.648Z,15.05
2018-02-12T22:45:55.061Z,14.73
2018-02-12T22:48:22.618Z,13.77
2018-02-12T22:50:50.148Z,21.95
2018-02-12T22:53:18.630Z,18.90
2018-02-12T22:55:46.903Z,18.92
2018-02-12T22:58:14.693Z,16.65
2018-02-12T23:00:43.059Z,16.58
2018-02-12T23:03:11.398Z,21.08
2018-02-12T23:05:38.965Z,19.23
2018-02-12T23:08:06.518Z,18.90
2018-02-12T23:10:34.072Z,17.90
2018-02-12T23:13:01.603Z,22.83
2018-02-12T23:15:34.113Z,16.15
2018-02-12T23:18:01.663Z,20.20
2018-02-12T23:20:29.154Z,18.15
2018-02-12T23:22:57.444Z,13.68
2018-02-12T23:25:24.989Z,16.20
2018-02-12T23:27:53.250Z,21.33
2018-02-12T23:30:20.795Z,18.33
2018-02-12T23:32:48.314Z,15.65
2018-02-12T23:35:15.866Z,15.00
2018-02-12T23:37:43.377Z,18.00
2018-02-12T23:40:10.906Z,16.50
2018-02-12T23:42:38.410Z,30.20
2018-02-12T23:45:06.727Z,20.27
2018-02-12T23:47:34.259Z,17.10
2018-02-12T23:50:02.540Z,23.65
2018-02-12T23:52:30.796Z,18.80
2018-02-12T23:54:58.316Z,19.25
2018-02-12T23:57:25.864Z,15.63
2018-02-12T23:59:53.361Z,13.02
